sensor_id;sensor_type;location;lat;lon;timestamp;pressure;altitude;pressure_sealevel;temperature;humidity
4024;BME280;2026;51.002;13.668;2023-03-15T00:03:59;98290.53;;;2.14;80.08
4024;BME280;2026;51.002;13.668;2023-03-15T00:09:02;98295.94;;;2.04;80.73
4024;BME280;2026;51.002;13.668;2023-03-15T00:14:07;98309.88;;;1.80;82.57
4024;BME280;2026;51.002;13.668;2023-03-15T00:19:10;98315.25;;;1.93;82.27
4024;BME280;2026;51.002;13.668;2023-03-15T00:24:13;98322.03;;;1.48;85.30
4024;BME280;2026;51.002;13.668;2023-03-15T00:29:18;98316.72;;;1.73;83.95
4024;BME280;2026;51.002;13.668;2023-03-15T00:34:22;98312.66;;;1.93;82.26
4024;BME280;2026;51.002;13.668;2023-03-15T00:39:27;98336.97;;;2.07;81.60
4024;BME280;2026;51.002;13.668;2023-03-15T00:44:31;98343.97;;;1.99;82.08
4024;BME280;2026;51.002;13.668;2023-03-15T00:49:34;98341.47;;;1.90;82.30
4024;BME280;2026;51.002;13.668;2023-03-15T00:54:38;98343.53;;;1.95;82.40
4024;BME280;2026;51.002;13.668;2023-03-15T00:59:43;98354.09;;;1.85;83.28
4024;BME280;2026;51.002;13.668;2023-03-15T01:04:46;98365.75;;;1.81;83.36
4024;BME280;2026;51.002;13.668;2023-03-15T01:09:50;98364.78;;;1.19;87.95
4024;BME280;2026;51.002;13.668;2023-03-15T01:14:54;98362.25;;;1.42;87.16
4024;BME280;2026;51.002;13.668;2023-03-15T01:19:57;98371.75;;;1.50;85.94
4024;BME280;2026;51.002;13.668;2023-03-15T01:25:00;98378.06;;;1.47;86.13
4024;BME280;2026;51.002;13.668;2023-03-15T01:30:06;98378.56;;;1.43;86.27
4024;BME280;2026;51.002;13.668;2023-03-15T01:35:09;98380.91;;;1.61;85.73
4024;BME280;2026;51.002;13.668;2023-03-15T01:40:13;98384.88;;;1.72;84.42
4024;BME280;2026;51.002;13.668;2023-03-15T01:51:32;98386.22;;;1.59;85.26
4024;BME280;2026;51.002;13.668;2023-03-15T01:56:39;98393.84;;;1.21;88.00
4024;BME280;2026;51.002;13.668;2023-03-15T02:01:44;98384.41;;;1.36;87.69
4024;BME280;2026;51.002;13.668;2023-03-15T02:06:49;98388.44;;;1.39;88.56
4024;BME280;2026;51.002;13.668;2023-03-15T02:11:54;98384.38;;;1.45;87.52
4024;BME280;2026;51.002;13.668;2023-03-15T02:16:58;98396.16;;;1.47;87.74
4024;BME280;2026;51.002;13.668;2023-03-15T02:22:11;98384.38;;;1.45;87.44
4024;BME280;2026;51.002;13.668;2023-03-15T02:27:25;98394.09;;;1.66;85.29
4024;BME280;2026;51.002;13.668;2023-03-15T02:32:29;98403.03;;;1.63;85.87
4024;BME280;2026;51.002;13.668;2023-03-15T02:37:32;98404.06;;;1.46;86.05
4024;BME280;2026;51.002;13.668;2023-03-15T02:42:37;98414.16;;;1.64;85.28
4024;BME280;2026;51.002;13.668;2023-03-15T02:47:40;98416.63;;;1.57;85.76
4024;BME280;2026;51.002;13.668;2023-03-15T02:52:43;98417.59;;;1.56;85.33
4024;BME280;2026;51.002;13.668;2023-03-15T02:57:48;98422.59;;;1.09;88.09
4024;BME280;2026;51.002;13.668;2023-03-15T03:02:51;98422.31;;;0.96;89.40
4024;BME280;2026;51.002;13.668;2023-03-15T03:07:54;98434.84;;;1.24;88.80
4024;BME280;2026;51.002;13.668;2023-03-15T03:12:58;98440.59;;;1.34;88.01
4024;BME280;2026;51.002;13.668;2023-03-15T03:18:10;98454.16;;;1.36;87.11
4024;BME280;2026;51.002;13.668;2023-03-15T03:23:13;98463.81;;;1.43;86.00
4024;BME280;2026;51.002;13.668;2023-03-15T03:28:18;98477.38;;;1.45;86.09
4024;BME280;2026;51.002;13.668;2023-03-15T03:33:22;98478.00;;;1.47;85.17
4024;BME280;2026;51.002;13.668;2023-03-15T03:38:25;98478.31;;;1.52;84.39
4024;BME280;2026;51.002;13.668;2023-03-15T03:43:32;98490.25;;;1.53;85.15
4024;BME280;2026;51.002;13.668;2023-03-15T03:48:35;98492.69;;;1.54;84.30
4024;BME280;2026;51.002;13.668;2023-03-15T03:53:40;98498.50;;;1.48;84.69
4024;BME280;2026;51.002;13.668;2023-03-15T03:58:45;98499.63;;;1.46;84.22
4024;BME280;2026;51.002;13.668;2023-03-15T04:03:57;98493.19;;;1.50;83.29
4024;BME280;2026;51.002;13.668;2023-03-15T04:09:00;98501.63;;;1.27;84.05
4024;BME280;2026;51.002;13.668;2023-03-15T04:14:14;98511.00;;;1.20;84.73
4024;BME280;2026;51.002;13.668;2023-03-15T04:19:19;98522.00;;;1.05;85.46
4024;BME280;2026;51.002;13.668;2023-03-15T04:24:22;98524.56;;;1.22;83.63
4024;BME280;2026;51.002;13.668;2023-03-15T04:29:47;98546.19;;;1.29;83.81
4024;BME280;2026;51.002;13.668;2023-03-15T04:35:04;98544.59;;;1.20;83.21
4024;BME280;2026;51.002;13.668;2023-03-15T04:40:31;98553.16;;;1.20;82.89
4024;BME280;2026;51.002;13.668;2023-03-15T04:45:59;98568.44;;;1.30;83.08
4024;BME280;2026;51.002;13.668;2023-03-15T04:51:16;98586.53;;;1.13;83.91
4024;BME280;2026;51.002;13.668;2023-03-15T04:56:26;98583.31;;;1.11;83.91
4024;BME280;2026;51.002;13.668;2023-03-15T05:01:51;98599.63;;;1.20;83.51
4024;BME280;2026;51.002;13.668;2023-03-15T05:06:54;98603.34;;;1.09;83.32
4024;BME280;2026;51.002;13.668;2023-03-15T05:12:23;98609.63;;;1.23;82.46
4024;BME280;2026;51.002;13.668;2023-03-15T05:17:57;98617.22;;;1.25;82.58
4024;BME280;2026;51.002;13.668;2023-03-15T05:23:12;98618.19;;;1.24;82.82
4024;BME280;2026;51.002;13.668;2023-03-15T05:28:22;98629.31;;;1.16;82.83
4024;BME280;2026;51.002;13.668;2023-03-15T05:33:45;98637.53;;;1.11;83.47
4024;BME280;2026;51.002;13.668;2023-03-15T05:39:07;98650.31;;;1.13;83.63
4024;BME280;2026;51.002;13.668;2023-03-15T05:44:31;98658.53;;;1.25;83.05
4024;BME280;2026;51.002;13.668;2023-03-15T05:49:38;98663.53;;;1.35;82.22
4024;BME280;2026;51.002;13.668;2023-03-15T05:55:00;98679.69;;;1.37;82.53
4024;BME280;2026;51.002;13.668;2023-03-15T06:00:19;98691.00;;;1.36;82.44
4024;BME280;2026;51.002;13.668;2023-03-15T06:05:29;98693.78;;;2.24;80.04
4024;BME280;2026;51.002;13.668;2023-03-15T06:10:36;98702.72;;;2.93;76.03
4024;BME280;2026;51.002;13.668;2023-03-15T06:15:42;98709.94;;;3.29;74.38
4024;BME280;2026;51.002;13.668;2023-03-15T06:20:46;98721.25;;;4.13;71.68
4024;BME280;2026;51.002;13.668;2023-03-15T06:25:51;98715.78;;;4.38;70.48
4024;BME280;2026;51.002;13.668;2023-03-15T06:30:56;98723.38;;;4.25;69.85
4024;BME280;2026;51.002;13.668;2023-03-15T06:36:11;98729.91;;;4.51;70.58
4024;BME280;2026;51.002;13.668;2023-03-15T06:41:15;98724.66;;;4.44;70.71
4024;BME280;2026;51.002;13.668;2023-03-15T06:46:18;98729.81;;;5.11;69.28
4024;BME280;2026;51.002;13.668;2023-03-15T06:51:22;98752.38;;;5.25;68.32
4024;BME280;2026;51.002;13.668;2023-03-15T06:56:26;98752.97;;;5.28;67.95
4024;BME280;2026;51.002;13.668;2023-03-15T07:01:29;98754.34;;;5.67;66.85
4024;BME280;2026;51.002;13.668;2023-03-15T07:06:34;98756.28;;;5.36;67.21
4024;BME280;2026;51.002;13.668;2023-03-15T07:11:37;98765.88;;;5.58;67.63
4024;BME280;2026;51.002;13.668;2023-03-15T07:16:40;98763.03;;;5.74;66.61
4024;BME280;2026;51.002;13.668;2023-03-15T07:21:44;98755.09;;;5.61;66.05
4024;BME280;2026;51.002;13.668;2023-03-15T07:26:47;98763.81;;;5.97;66.03
4024;BME280;2026;51.002;13.668;2023-03-15T07:31:55;98761.50;;;6.79;64.56
4024;BME280;2026;51.002;13.668;2023-03-15T07:36:59;98770.16;;;6.51;63.88
4024;BME280;2026;51.002;13.668;2023-03-15T07:42:03;98766.75;;;6.93;62.59
4024;BME280;2026;51.002;13.668;2023-03-15T07:47:14;98769.69;;;6.76;63.07
4024;BME280;2026;51.002;13.668;2023-03-15T07:52:18;98772.19;;;6.56;62.03
4024;BME280;2026;51.002;13.668;2023-03-15T07:57:21;98765.06;;;7.13;63.83
4024;BME280;2026;51.002;13.668;2023-03-15T08:02:25;98765.28;;;7.25;58.82
4024;BME280;2026;51.002;13.668;2023-03-15T08:07:32;98771.78;;;7.77;61.28
4024;BME280;2026;51.002;13.668;2023-03-15T08:12:36;98782.94;;;7.30;59.27
4024;BME280;2026;51.002;13.668;2023-03-15T08:17:41;98779.16;;;7.39;59.27
4024;BME280;2026;51.002;13.668;2023-03-15T08:22:46;98794.50;;;7.07;60.26
4024;BME280;2026;51.002;13.668;2023-03-15T08:27:50;98789.94;;;6.74;60.01
4024;BME280;2026;51.002;13.668;2023-03-15T08:32:53;98816.22;;;5.93;60.40
4024;BME280;2026;51.002;13.668;2023-03-15T08:37:57;98810.16;;;5.86;61.81
4024;BME280;2026;51.002;13.668;2023-03-15T08:43:00;98819.06;;;5.55;64.29
4024;BME280;2026;51.002;13.668;2023-03-15T08:48:03;98819.16;;;5.62;64.43
4024;BME280;2026;51.002;13.668;2023-03-15T08:53:08;98831.00;;;5.49;66.02
4024;BME280;2026;51.002;13.668;2023-03-15T08:58:11;98850.25;;;4.58;74.15
4024;BME280;2026;51.002;13.668;2023-03-15T09:03:14;98868.50;;;3.88;82.57
4024;BME280;2026;51.002;13.668;2023-03-15T09:08:19;98867.00;;;3.70;86.94
4024;BME280;2026;51.002;13.668;2023-03-15T09:13:22;98858.53;;;4.00;87.54
4024;BME280;2026;51.002;13.668;2023-03-15T09:18:25;98856.50;;;4.49;86.24
4024;BME280;2026;51.002;13.668;2023-03-15T09:23:30;98858.25;;;4.72;82.88
4024;BME280;2026;51.002;13.668;2023-03-15T09:28:33;98865.44;;;5.00;81.26
4024;BME280;2026;51.002;13.668;2023-03-15T09:33:36;98863.06;;;5.05;80.89
4024;BME280;2026;51.002;13.668;2023-03-15T09:38:41;98867.53;;;5.41;78.85
4024;BME280;2026;51.002;13.668;2023-03-15T09:43:57;98869.38;;;5.10;78.97
4024;BME280;2026;51.002;13.668;2023-03-15T09:49:08;98876.94;;;5.42;77.88
4024;BME280;2026;51.002;13.668;2023-03-15T09:54:19;98886.13;;;5.08;76.73
4024;BME280;2026;51.002;13.668;2023-03-15T09:59:30;98884.13;;;5.10;76.49
4024;BME280;2026;51.002;13.668;2023-03-15T10:04:35;98889.63;;;4.47;78.31
4024;BME280;2026;51.002;13.668;2023-03-15T10:09:42;98883.69;;;4.76;77.43
4024;BME280;2026;51.002;13.668;2023-03-15T10:15:07;98896.38;;;4.71;77.37
4024;BME280;2026;51.002;13.668;2023-03-15T10:20:19;98903.88;;;4.51;79.02
4024;BME280;2026;51.002;13.668;2023-03-15T10:25:27;98905.28;;;4.77;78.23
4024;BME280;2026;51.002;13.668;2023-03-15T10:30:33;98911.53;;;4.82;77.65
4024;BME280;2026;51.002;13.668;2023-03-15T10:35:36;98918.88;;;4.64;79.63
4024;BME280;2026;51.002;13.668;2023-03-15T10:40:43;98918.72;;;4.42;78.66
4024;BME280;2026;51.002;13.668;2023-03-15T10:45:58;98925.63;;;4.50;79.76
4024;BME280;2026;51.002;13.668;2023-03-15T10:51:04;98921.47;;;4.40;79.89
4024;BME280;2026;51.002;13.668;2023-03-15T10:56:16;98926.75;;;4.86;78.53
4024;BME280;2026;51.002;13.668;2023-03-15T11:01:25;98929.31;;;4.55;79.02
4024;BME280;2026;51.002;13.668;2023-03-15T11:06:38;98922.03;;;4.51;79.07
4024;BME280;2026;51.002;13.668;2023-03-15T11:11:58;98921.13;;;4.82;77.75
4024;BME280;2026;51.002;13.668;2023-03-15T11:17:04;98928.78;;;4.98;79.62
4024;BME280;2026;51.002;13.668;2023-03-15T11:22:11;98930.06;;;4.64;78.96
4024;BME280;2026;51.002;13.668;2023-03-15T11:27:18;98942.25;;;4.79;77.62
4024;BME280;2026;51.002;13.668;2023-03-15T11:32:25;98948.44;;;4.78;77.48
4024;BME280;2026;51.002;13.668;2023-03-15T11:37:33;98940.97;;;4.60;78.70
4024;BME280;2026;51.002;13.668;2023-03-15T11:42:47;98937.97;;;4.48;78.42
4024;BME280;2026;51.002;13.668;2023-03-15T11:47:53;98938.00;;;4.63;76.74
4024;BME280;2026;51.002;13.668;2023-03-15T11:52:58;98935.78;;;4.75;77.38
4024;BME280;2026;51.002;13.668;2023-03-15T11:58:27;98930.19;;;4.86;75.29
4024;BME280;2026;51.002;13.668;2023-03-15T12:03:36;98931.38;;;5.14;73.41
4024;BME280;2026;51.002;13.668;2023-03-15T12:08:43;98926.72;;;5.09;74.70
4024;BME280;2026;51.002;13.668;2023-03-15T12:14:02;98925.91;;;5.90;73.71
4024;BME280;2026;51.002;13.668;2023-03-15T12:19:12;98920.22;;;4.75;74.97
4024;BME280;2026;51.002;13.668;2023-03-15T12:24:20;98922.13;;;5.41;75.26
4024;BME280;2026;51.002;13.668;2023-03-15T12:29:27;98930.91;;;6.14;75.02
4024;BME280;2026;51.002;13.668;2023-03-15T12:34:51;98921.34;;;5.99;73.84
4024;BME280;2026;51.002;13.668;2023-03-15T12:39:59;98927.75;;;4.69;74.24
4024;BME280;2026;51.002;13.668;2023-03-15T12:45:36;98934.78;;;5.29;74.75
4024;BME280;2026;51.002;13.668;2023-03-15T12:50:49;98932.81;;;5.46;74.99
4024;BME280;2026;51.002;13.668;2023-03-15T12:55:53;98943.25;;;5.68;71.24
4024;BME280;2026;51.002;13.668;2023-03-15T13:01:11;98937.31;;;5.74;71.39
4024;BME280;2026;51.002;13.668;2023-03-15T13:06:21;98942.41;;;5.83;72.00
4024;BME280;2026;51.002;13.668;2023-03-15T13:11:35;98940.22;;;5.49;72.81
4024;BME280;2026;51.002;13.668;2023-03-15T13:16:46;98936.31;;;5.75;72.75
4024;BME280;2026;51.002;13.668;2023-03-15T13:21:59;98940.75;;;5.60;74.70
4024;BME280;2026;51.002;13.668;2023-03-15T13:27:08;98948.81;;;6.02;73.42
4024;BME280;2026;51.002;13.668;2023-03-15T13:32:17;98941.34;;;6.14;72.49
4024;BME280;2026;51.002;13.668;2023-03-15T13:37:22;98945.88;;;6.77;70.45
4024;BME280;2026;51.002;13.668;2023-03-15T13:42:27;98945.88;;;7.34;68.68
4024;BME280;2026;51.002;13.668;2023-03-15T13:47:33;98951.03;;;6.99;70.55
4024;BME280;2026;51.002;13.668;2023-03-15T13:52:36;98952.50;;;6.51;68.59
4024;BME280;2026;51.002;13.668;2023-03-15T13:57:39;98960.44;;;6.21;70.36
4024;BME280;2026;51.002;13.668;2023-03-15T14:02:46;98958.69;;;6.06;69.48
4024;BME280;2026;51.002;13.668;2023-03-15T14:07:55;98961.56;;;6.33;70.44
4024;BME280;2026;51.002;13.668;2023-03-15T14:13:16;98966.63;;;6.20;71.01
4024;BME280;2026;51.002;13.668;2023-03-15T14:18:26;98970.94;;;6.28;71.33
4024;BME280;2026;51.002;13.668;2023-03-15T14:23:35;98971.09;;;6.26;70.47
4024;BME280;2026;51.002;13.668;2023-03-15T14:28:40;98972.09;;;6.25;68.93
4024;BME280;2026;51.002;13.668;2023-03-15T14:33:51;98971.72;;;6.50;68.89
4024;BME280;2026;51.002;13.668;2023-03-15T14:38:57;98990.25;;;6.40;69.60
4024;BME280;2026;51.002;13.668;2023-03-15T14:44:01;98983.50;;;6.46;69.14
4024;BME280;2026;51.002;13.668;2023-03-15T14:49:06;98978.88;;;6.70;68.70
4024;BME280;2026;51.002;13.668;2023-03-15T14:54:11;98984.81;;;5.98;71.80
4024;BME280;2026;51.002;13.668;2023-03-15T14:59:15;98985.00;;;6.33;70.23
4024;BME280;2026;51.002;13.668;2023-03-15T15:04:20;98977.53;;;6.30;68.50
4024;BME280;2026;51.002;13.668;2023-03-15T15:09:25;98990.19;;;6.12;69.79
4024;BME280;2026;51.002;13.668;2023-03-15T15:14:28;98985.50;;;6.44;68.14
4024;BME280;2026;51.002;13.668;2023-03-15T15:19:33;98987.91;;;6.67;65.26
4024;BME280;2026;51.002;13.668;2023-03-15T15:24:36;98990.44;;;6.60;64.07
4024;BME280;2026;51.002;13.668;2023-03-15T15:29:39;98999.06;;;6.39;64.23
4024;BME280;2026;51.002;13.668;2023-03-15T15:34:43;98999.38;;;6.51;64.32
4024;BME280;2026;51.002;13.668;2023-03-15T15:39:46;99008.44;;;6.33;63.31
4024;BME280;2026;51.002;13.668;2023-03-15T15:44:50;99020.88;;;5.11;62.82
4024;BME280;2026;51.002;13.668;2023-03-15T15:49:55;99027.00;;;4.80;62.65
4024;BME280;2026;51.002;13.668;2023-03-15T15:54:57;99028.84;;;5.09;63.43
4024;BME280;2026;51.002;13.668;2023-03-15T16:00:03;99035.38;;;4.67;64.21
4024;BME280;2026;51.002;13.668;2023-03-15T16:05:29;99038.22;;;4.80;65.26
4024;BME280;2026;51.002;13.668;2023-03-15T16:10:33;99043.66;;;4.86;63.68
4024;BME280;2026;51.002;13.668;2023-03-15T16:15:36;99049.19;;;4.67;64.01
4024;BME280;2026;51.002;13.668;2023-03-15T16:20:41;99062.03;;;4.61;64.76
4024;BME280;2026;51.002;13.668;2023-03-15T16:25:45;99077.91;;;4.34;68.56
4024;BME280;2026;51.002;13.668;2023-03-15T16:30:49;99070.63;;;4.61;68.15
4024;BME280;2026;51.002;13.668;2023-03-15T16:35:54;99078.44;;;4.61;68.85
4024;BME280;2026;51.002;13.668;2023-03-15T16:40:58;99080.47;;;4.74;68.39
4024;BME280;2026;51.002;13.668;2023-03-15T16:46:10;99090.69;;;4.76;69.58
4024;BME280;2026;51.002;13.668;2023-03-15T16:51:15;99094.59;;;4.72;70.60
4024;BME280;2026;51.002;13.668;2023-03-15T16:56:18;99108.19;;;4.50;71.38
4024;BME280;2026;51.002;13.668;2023-03-15T17:01:21;99124.16;;;4.31;72.94
4024;BME280;2026;51.002;13.668;2023-03-15T17:06:28;99133.59;;;4.23;73.01
4024;BME280;2026;51.002;13.668;2023-03-15T17:11:31;99138.16;;;4.21;73.06
4024;BME280;2026;51.002;13.668;2023-03-15T17:16:34;99138.63;;;4.25;72.56
4024;BME280;2026;51.002;13.668;2023-03-15T17:21:40;99156.38;;;4.05;72.87
4024;BME280;2026;51.002;13.668;2023-03-15T17:26:44;99159.66;;;3.82;73.51
4024;BME280;2026;51.002;13.668;2023-03-15T17:31:47;99173.28;;;3.84;72.80
4024;BME280;2026;51.002;13.668;2023-03-15T17:36:51;99168.09;;;3.76;72.89
4024;BME280;2026;51.002;13.668;2023-03-15T17:41:56;99183.53;;;3.44;73.56
4024;BME280;2026;51.002;13.668;2023-03-15T17:47:00;99193.38;;;3.15;74.64
4024;BME280;2026;51.002;13.668;2023-03-15T17:52:11;99210.31;;;2.93;75.67
4024;BME280;2026;51.002;13.668;2023-03-15T17:57:15;99218.38;;;2.82;76.25
4024;BME280;2026;51.002;13.668;2023-03-15T18:02:18;99224.88;;;2.51;79.41
4024;BME280;2026;51.002;13.668;2023-03-15T18:07:23;99230.25;;;2.92;77.84
4024;BME280;2026;51.002;13.668;2023-03-15T18:12:29;99239.16;;;2.98;77.14
4024;BME280;2026;51.002;13.668;2023-03-15T18:17:32;99244.63;;;2.95;77.48
4024;BME280;2026;51.002;13.668;2023-03-15T18:22:37;99255.31;;;2.92;77.79
4024;BME280;2026;51.002;13.668;2023-03-15T18:27:41;99265.22;;;2.97;76.82
4024;BME280;2026;51.002;13.668;2023-03-15T18:32:44;99252.81;;;2.74;78.17
4024;BME280;2026;51.002;13.668;2023-03-15T18:37:49;99258.19;;;2.81;77.99
4024;BME280;2026;51.002;13.668;2023-03-15T18:42:52;99256.47;;;2.63;79.48
4024;BME280;2026;51.002;13.668;2023-03-15T18:47:55;99258.25;;;2.54;80.53
4024;BME280;2026;51.002;13.668;2023-03-15T18:53:01;99266.44;;;2.41;81.27
4024;BME280;2026;51.002;13.668;2023-03-15T18:58:07;99268.19;;;2.41;81.31
4024;BME280;2026;51.002;13.668;2023-03-15T19:03:13;99273.88;;;2.44;81.13
4024;BME280;2026;51.002;13.668;2023-03-15T19:08:17;99274.78;;;2.35;81.64
4024;BME280;2026;51.002;13.668;2023-03-15T19:13:21;99276.91;;;2.40;81.26
4024;BME280;2026;51.002;13.668;2023-03-15T19:18:24;99283.81;;;2.31;81.54
4024;BME280;2026;51.002;13.668;2023-03-15T19:23:28;99296.47;;;2.34;81.56
4024;BME280;2026;51.002;13.668;2023-03-15T19:28:32;99304.59;;;2.21;81.53
4024;BME280;2026;51.002;13.668;2023-03-15T19:33:36;99298.19;;;2.07;82.18
4024;BME280;2026;51.002;13.668;2023-03-15T19:38:40;99308.03;;;2.03;82.47
4024;BME280;2026;51.002;13.668;2023-03-15T19:43:43;99319.41;;;1.92;82.31
4024;BME280;2026;51.002;13.668;2023-03-15T19:48:46;99322.31;;;1.89;82.54
4024;BME280;2026;51.002;13.668;2023-03-15T19:53:51;99334.94;;;1.74;82.97
4024;BME280;2026;51.002;13.668;2023-03-15T19:58:54;99333.59;;;1.70;82.89
4024;BME280;2026;51.002;13.668;2023-03-15T20:03:57;99342.91;;;1.63;83.13
4024;BME280;2026;51.002;13.668;2023-03-15T20:09:02;99352.19;;;1.56;82.92
4024;BME280;2026;51.002;13.668;2023-03-15T20:14:06;99355.00;;;1.62;82.52
4024;BME280;2026;51.002;13.668;2023-03-15T20:19:09;99361.22;;;1.70;82.43
4024;BME280;2026;51.002;13.668;2023-03-15T20:24:14;99358.81;;;1.86;81.98
4024;BME280;2026;51.002;13.668;2023-03-15T20:29:17;99359.16;;;1.73;82.17
4024;BME280;2026;51.002;13.668;2023-03-15T20:34:20;99367.69;;;1.84;81.76
4024;BME280;2026;51.002;13.668;2023-03-15T20:39:24;99376.41;;;1.83;81.91
4024;BME280;2026;51.002;13.668;2023-03-15T20:44:27;99384.69;;;1.58;83.25
4024;BME280;2026;51.002;13.668;2023-03-15T20:49:30;99398.91;;;1.06;86.19
4024;BME280;2026;51.002;13.668;2023-03-15T20:54:35;99403.72;;;1.01;86.53
4024;BME280;2026;51.002;13.668;2023-03-15T20:59:38;99401.94;;;0.92;87.06
4024;BME280;2026;51.002;13.668;2023-03-15T21:04:41;99411.59;;;0.99;86.61
4024;BME280;2026;51.002;13.668;2023-03-15T21:09:46;99415.47;;;1.13;86.56
4024;BME280;2026;51.002;13.668;2023-03-15T21:14:49;99420.09;;;1.20;85.35
4024;BME280;2026;51.002;13.668;2023-03-15T21:19:52;99420.38;;;1.17;85.12
4024;BME280;2026;51.002;13.668;2023-03-15T21:24:56;99425.56;;;1.07;85.35
4024;BME280;2026;51.002;13.668;2023-03-15T21:29:59;99430.22;;;0.83;86.25
4024;BME280;2026;51.002;13.668;2023-03-15T21:35:03;99433.22;;;0.89;86.48
4024;BME280;2026;51.002;13.668;2023-03-15T21:40:09;99431.88;;;0.84;85.84
4024;BME280;2026;51.002;13.668;2023-03-15T21:45:12;99436.09;;;0.85;86.55
4024;BME280;2026;51.002;13.668;2023-03-15T21:50:15;99439.75;;;0.83;85.58
4024;BME280;2026;51.002;13.668;2023-03-15T21:55:19;99433.22;;;0.79;86.18
4024;BME280;2026;51.002;13.668;2023-03-15T22:00:23;99446.44;;;0.66;86.63
4024;BME280;2026;51.002;13.668;2023-03-15T22:05:27;99448.88;;;0.57;87.50
4024;BME280;2026;51.002;13.668;2023-03-15T22:10:31;99454.19;;;0.46;87.75
4024;BME280;2026;51.002;13.668;2023-03-15T22:15:34;99463.00;;;0.63;87.22
4024;BME280;2026;51.002;13.668;2023-03-15T22:20:37;99459.63;;;0.63;87.62
4024;BME280;2026;51.002;13.668;2023-03-15T22:25:41;99454.19;;;0.46;89.19
4024;BME280;2026;51.002;13.668;2023-03-15T22:30:46;99454.44;;;0.23;90.44
4024;BME280;2026;51.002;13.668;2023-03-15T22:35:53;99468.81;;;0.16;90.78
4024;BME280;2026;51.002;13.668;2023-03-15T22:41:03;99462.44;;;0.20;92.80
4024;BME280;2026;51.002;13.668;2023-03-15T22:46:07;99477.81;;;0.32;91.39
4024;BME280;2026;51.002;13.668;2023-03-15T22:51:13;99475.47;;;0.28;90.89
4024;BME280;2026;51.002;13.668;2023-03-15T22:56:18;99484.44;;;0.44;90.11
4024;BME280;2026;51.002;13.668;2023-03-15T23:01:21;99489.34;;;0.47;90.00
4024;BME280;2026;51.002;13.668;2023-03-15T23:06:24;99483.34;;;0.76;88.65
4024;BME280;2026;51.002;13.668;2023-03-15T23:11:28;99491.38;;;0.83;88.27
4024;BME280;2026;51.002;13.668;2023-03-15T23:16:31;99499.97;;;0.74;88.77
4024;BME280;2026;51.002;13.668;2023-03-15T23:21:34;99489.75;;;0.82;89.04
4024;BME280;2026;51.002;13.668;2023-03-15T23:26:39;99498.72;;;0.68;89.19
4024;BME280;2026;51.002;13.668;2023-03-15T23:31:42;99500.34;;;0.49;89.89
4024;BME280;2026;51.002;13.668;2023-03-15T23:36:45;99505.22;;;0.52;89.71
4024;BME280;2026;51.002;13.668;2023-03-15T23:41:49;99502.41;;;0.65;89.25
4024;BME280;2026;51.002;13.668;2023-03-15T23:46:52;99501.84;;;0.52;89.90
4024;BME280;2026;51.002;13.668;2023-03-15T23:51:55;99506.31;;;0.60;89.89
4024;BME280;2026;51.002;13.668;2023-03-15T23:56:59;99516.38;;;0.63;89.95
